createdAt,value
2019-03-31T00:03:39.020Z,101581.95
2019-03-31T00:06:07.298Z,101580.04
2019-03-31T00:08:35.592Z,101575.19
2019-03-31T00:11:03.877Z,101583.39
2019-03-31T00:13:32.171Z,101584.11
2019-03-31T00:16:00.445Z,101595.63
2019-03-31T00:18:28.715Z,101587.53
2019-03-31T00:20:57.073Z,101595.66
2019-03-31T00:23:25.361Z,101592.24
2019-03-31T00:25:53.655Z,101599.49
2019-03-31T00:28:21.951Z,101596.55
2019-03-31T00:33:29.212Z,101601.58
2019-03-31T00:35:57.492Z,101603.97
2019-03-31T00:38:25.805Z,101597.13
2019-03-31T00:40:54.101Z,101598.18
2019-03-31T00:43:22.383Z,101600.88
2019-03-31T00:45:50.671Z,101594.16
2019-03-31T00:48:18.949Z,101602.73
2019-03-31T00:50:47.244Z,101603.00
2019-03-31T00:53:15.519Z,101596.86
2019-03-31T00:55:43.802Z,101603.14
2019-03-31T00:58:12.071Z,101599.55
2019-03-31T01:01:13.193Z,101606.02
2019-03-31T01:03:42.501Z,101599.21
2019-03-31T01:06:10.945Z,101612.14
2019-03-31T01:08:39.249Z,101608.91
2019-03-31T01:11:45.223Z,101616.71
2019-03-31T01:14:13.568Z,101615.09
2019-03-31T01:16:41.835Z,101618.99
2019-03-31T01:19:47.573Z,101618.66
2019-03-31T01:22:15.868Z,101624.41
2019-03-31T01:24:44.153Z,101622.16
2019-03-31T01:30:23.890Z,101619.44
2019-03-31T01:35:35.760Z,101620.30
2019-03-31T01:38:04.041Z,101624.20
2019-03-31T01:40:32.318Z,101627.50
2019-03-31T01:43:00.586Z,101630.36
2019-03-31T01:45:28.875Z,101634.78
2019-03-31T01:47:57.163Z,101634.71
2019-03-31T01:50:57.580Z,101627.88
2019-03-31T01:53:25.901Z,101634.89
2019-03-31T01:55:54.166Z,101636.27
2019-03-31T01:58:22.441Z,101635.42
2019-03-31T02:01:09.835Z,101632.11
2019-03-31T02:03:38.167Z,101629.40
2019-03-31T02:06:06.468Z,101634.07
2019-03-31T02:08:34.760Z,101631.55
2019-03-31T02:11:03.114Z,101635.05
2019-03-31T02:13:31.376Z,101635.83
2019-03-31T02:15:59.767Z,101631.92
2019-03-31T02:18:28.065Z,101638.05
2019-03-31T02:20:56.329Z,101628.17
2019-03-31T02:23:25.595Z,101633.37
2019-03-31T02:25:53.876Z,101629.69
2019-03-31T02:28:22.163Z,101632.22
2019-03-31T02:30:50.447Z,101626.05
2019-03-31T02:33:18.736Z,101627.46
2019-03-31T02:35:47.013Z,101628.17
2019-03-31T02:38:15.327Z,101628.83
2019-03-31T02:40:43.618Z,101629.28
2019-03-31T02:43:11.891Z,101633.96
2019-03-31T02:45:40.175Z,101625.98
2019-03-31T02:48:08.446Z,101627.31
2019-03-31T02:50:56.092Z,101629.84
2019-03-31T02:53:24.376Z,101634.16
2019-03-31T02:56:28.785Z,101639.23
2019-03-31T02:59:28.428Z,101637.56
2019-03-31T03:02:41.618Z,101639.05
2019-03-31T03:05:30.594Z,101646.66
2019-03-31T03:08:30.379Z,101648.11
2019-03-31T03:14:43.745Z,101643.80
2019-03-31T03:17:12.035Z,101652.75
2019-03-31T03:19:40.334Z,101652.27
2019-03-31T03:22:08.605Z,101659.83
2019-03-31T03:24:36.915Z,101659.59
2019-03-31T03:30:24.556Z,101659.04
2019-03-31T03:33:13.869Z,101660.78
2019-03-31T03:35:22.847Z,101664.05
2019-03-31T03:37:51.306Z,101669.80
2019-03-31T03:40:19.584Z,101672.44
2019-03-31T03:42:47.877Z,101668.91
2019-03-31T03:45:16.183Z,101669.80
2019-03-31T03:47:44.444Z,101682.17
2019-03-31T03:50:12.738Z,101678.83
2019-03-31T03:52:41.026Z,101683.20
2019-03-31T03:55:09.300Z,101678.83
2019-03-31T03:57:37.603Z,101679.23
2019-03-31T04:00:39.993Z,101677.22
2019-03-31T04:03:08.303Z,101677.49
2019-03-31T04:05:36.579Z,101688.71
2019-03-31T04:08:04.878Z,101684.92
2019-03-31T04:11:10.706Z,101692.37
2019-03-31T04:13:39.471Z,101690.63
2019-03-31T04:16:07.761Z,101692.30
2019-03-31T04:18:36.040Z,101696.41
2019-03-31T04:21:41.974Z,101698.11
2019-03-31T04:24:10.262Z,101701.16
2019-03-31T04:26:38.547Z,101706.80
2019-03-31T04:29:06.834Z,101710.80
2019-03-31T04:31:35.112Z,101713.70
2019-03-31T04:34:03.392Z,101709.52
2019-03-31T04:36:31.676Z,101721.22
2019-03-31T04:39:00.705Z,101718.75
2019-03-31T04:41:29.973Z,101721.88
2019-03-31T04:43:58.251Z,101727.52
2019-03-31T04:46:26.549Z,101732.02
2019-03-31T04:48:54.808Z,101732.97
2019-03-31T04:51:23.123Z,101728.21
2019-03-31T04:53:51.446Z,101737.81
2019-03-31T04:56:19.730Z,101740.61
2019-03-31T04:58:48.002Z,101740.14
2019-03-31T05:01:16.281Z,101748.67
2019-03-31T05:03:44.550Z,101754.24
2019-03-31T05:06:12.809Z,101755.45
2019-03-31T05:08:41.101Z,101755.98
2019-03-31T05:11:09.358Z,101767.81
2019-03-31T05:13:37.641Z,101768.88
2019-03-31T05:16:05.915Z,101780.38
2019-03-31T05:18:34.188Z,101781.56
2019-03-31T05:21:02.449Z,101791.20
2019-03-31T05:23:30.720Z,101787.73
2019-03-31T05:25:58.995Z,101791.25
2019-03-31T05:28:27.280Z,101799.55
2019-03-31T05:30:55.551Z,101804.23
2019-03-31T05:33:23.825Z,101807.39
2019-03-31T05:35:52.181Z,101818.09
2019-03-31T05:38:20.489Z,101815.12
2019-03-31T05:40:48.715Z,101817.97
2019-03-31T05:43:16.989Z,101823.92
2019-03-31T05:45:45.305Z,101830.91
2019-03-31T05:48:13.588Z,101838.12
2019-03-31T05:50:41.885Z,101845.78
2019-03-31T05:53:10.158Z,101842.38
2019-03-31T05:55:38.465Z,101841.45
2019-03-31T05:58:06.755Z,101850.51
2019-03-31T06:01:15.094Z,101851.73
2019-03-31T06:03:44.121Z,101863.08
2019-03-31T06:06:12.389Z,101855.75
2019-03-31T06:08:40.736Z,101854.27
2019-03-31T06:11:09.008Z,101855.42
2019-03-31T06:13:37.279Z,101853.95
2019-03-31T06:16:05.539Z,101859.88
2019-03-31T06:18:33.823Z,101862.97
2019-03-31T06:21:02.081Z,101862.41
2019-03-31T06:23:30.352Z,101868.27
2019-03-31T06:25:58.653Z,101869.48
2019-03-31T06:28:26.909Z,101870.84
2019-03-31T06:30:55.191Z,101868.80
2019-03-31T06:33:23.512Z,101869.38
2019-03-31T06:35:51.786Z,101870.95
2019-03-31T06:38:20.140Z,101878.47
2019-03-31T06:41:07.774Z,101879.66
2019-03-31T06:43:48.881Z,101879.52
2019-03-31T06:46:17.167Z,101883.95
2019-03-31T06:48:45.478Z,101886.73
2019-03-31T06:51:26.388Z,101888.78
2019-03-31T06:53:54.743Z,101896.44
2019-03-31T06:56:23.034Z,101905.42
2019-03-31T06:58:51.355Z,101901.50
2019-03-31T07:01:19.722Z,101901.35
2019-03-31T07:03:48.760Z,101909.68
2019-03-31T07:06:58.983Z,101906.93
2019-03-31T07:10:03.134Z,101908.03
2019-03-31T07:12:31.387Z,101909.42
2019-03-31T07:14:59.667Z,101915.28
2019-03-31T07:17:27.958Z,101910.91
2019-03-31T07:19:56.242Z,101916.33
2019-03-31T07:22:24.615Z,101920.30
2019-03-31T07:28:22.394Z,101924.34
2019-03-31T07:30:51.061Z,101942.64
2019-03-31T07:33:19.358Z,101953.35
2019-03-31T07:35:47.659Z,101946.45
2019-03-31T07:38:16.094Z,101946.31
2019-03-31T07:40:44.777Z,101959.37
2019-03-31T07:43:14.449Z,101971.25
2019-03-31T07:45:42.764Z,101971.45
2019-03-31T07:48:11.138Z,101970.58
2019-03-31T07:50:39.409Z,101970.98
2019-03-31T07:53:07.671Z,101973.22
2019-03-31T07:55:35.981Z,101967.40
2019-03-31T07:58:04.273Z,101975.71
2019-03-31T08:00:32.510Z,101969.05
2019-03-31T08:03:00.780Z,101965.27
2019-03-31T08:05:33.425Z,101956.99
2019-03-31T08:07:59.044Z,101954.27
2019-03-31T08:10:27.313Z,101969.11
2019-03-31T08:12:55.645Z,101985.43
2019-03-31T08:15:23.918Z,101977.04
2019-03-31T08:17:52.208Z,101972.16
2019-03-31T08:20:52.372Z,101964.12
2019-03-31T08:23:20.636Z,101973.41
2019-03-31T08:25:49.017Z,101972.43
2019-03-31T08:28:17.290Z,101986.17
2019-03-31T08:30:45.547Z,101969.70
2019-03-31T08:33:13.827Z,101977.54
2019-03-31T08:35:47.569Z,101979.06
2019-03-31T08:38:12.068Z,101985.55
2019-03-31T08:40:40.330Z,102001.43
2019-03-31T08:43:08.601Z,101999.36
2019-03-31T08:45:36.864Z,101991.04
2019-03-31T08:48:05.125Z,101995.02
2019-03-31T08:50:34.986Z,102001.76
2019-03-31T08:53:03.396Z,102017.02
2019-03-31T08:55:31.667Z,102029.67
2019-03-31T08:57:59.964Z,102032.53
2019-03-31T09:03:07.180Z,102027.03
2019-03-31T09:05:35.437Z,102018.73
2019-03-31T09:08:03.697Z,102024.67
2019-03-31T09:10:31.971Z,102025.52
2019-03-31T09:13:00.219Z,102025.90
2019-03-31T09:15:28.496Z,102036.35
2019-03-31T09:17:56.749Z,102038.45
2019-03-31T09:20:25.014Z,102038.73
2019-03-31T09:22:53.266Z,102041.05
2019-03-31T09:25:21.535Z,102048.44
2019-03-31T09:27:49.808Z,102053.85
2019-03-31T09:30:18.075Z,102053.84
2019-03-31T09:32:46.350Z,102056.56
2019-03-31T09:35:33.980Z,102053.09
2019-03-31T09:38:02.249Z,102053.09
2019-03-31T09:40:30.550Z,102055.47
2019-03-31T09:42:58.816Z,102065.45
2019-03-31T09:45:27.128Z,102064.13
2019-03-31T09:47:55.363Z,102065.05
2019-03-31T09:50:23.693Z,102062.05
2019-03-31T09:52:51.948Z,102062.88
2019-03-31T09:55:22.964Z,102063.11
2019-03-31T09:57:50.202Z,102047.58
2019-03-31T10:00:58.483Z,102057.45
2019-03-31T10:03:26.742Z,102049.84
2019-03-31T10:05:55.001Z,102052.30
2019-03-31T10:08:23.256Z,102062.31
2019-03-31T10:10:51.537Z,102064.23
2019-03-31T10:13:19.793Z,102075.86
2019-03-31T10:15:48.079Z,102076.03
2019-03-31T10:18:18.095Z,102075.30
2019-03-31T10:20:46.320Z,102067.73
2019-03-31T10:23:14.584Z,102063.83
2019-03-31T10:25:42.874Z,102074.96
2019-03-31T10:28:11.129Z,102081.51
2019-03-31T10:31:10.534Z,102086.73
2019-03-31T10:33:39.320Z,102083.83
2019-03-31T10:36:26.936Z,102084.13
2019-03-31T10:38:55.192Z,102084.13
2019-03-31T10:41:23.454Z,102095.54
2019-03-31T10:43:51.716Z,102096.32
2019-03-31T10:46:19.981Z,102095.98
2019-03-31T10:48:48.244Z,102090.56
2019-03-31T10:51:16.499Z,102093.11
2019-03-31T10:53:44.783Z,102089.88
2019-03-31T10:56:13.037Z,102082.30
2019-03-31T10:58:41.294Z,102092.94
2019-03-31T11:01:09.570Z,102088.98
2019-03-31T11:03:37.840Z,102088.53
2019-03-31T11:06:06.098Z,102092.00
2019-03-31T11:08:34.378Z,102085.34
2019-03-31T11:11:02.646Z,102092.84
2019-03-31T11:13:30.895Z,102082.38
2019-03-31T11:15:59.235Z,102085.98
2019-03-31T11:18:27.487Z,102083.08
2019-03-31T11:23:37.308Z,102085.09
2019-03-31T11:26:05.572Z,102091.52
2019-03-31T11:28:33.833Z,102087.69
2019-03-31T11:31:02.084Z,102081.44
2019-03-31T11:33:30.351Z,102079.16
2019-03-31T11:35:58.610Z,102088.84
2019-03-31T11:38:26.905Z,102061.88
2019-03-31T11:40:55.174Z,102087.22
2019-03-31T11:43:23.447Z,102078.84
2019-03-31T11:45:51.707Z,102075.28
2019-03-31T11:48:19.974Z,102097.23
2019-03-31T11:50:48.234Z,102093.80
2019-03-31T11:53:16.498Z,102089.58
2019-03-31T11:55:44.758Z,102090.86
2019-03-31T11:58:13.099Z,102097.03
2019-03-31T12:03:20.288Z,102093.16
2019-03-31T12:05:48.542Z,102089.08
2019-03-31T12:08:16.794Z,102096.21
2019-03-31T12:10:45.052Z,102100.58
2019-03-31T12:13:13.314Z,102106.79
2019-03-31T12:15:41.604Z,102089.39
2019-03-31T12:18:09.880Z,102089.70
2019-03-31T12:20:38.135Z,102098.06
2019-03-31T12:23:06.404Z,102093.61
2019-03-31T12:25:34.661Z,102096.19
2019-03-31T12:28:02.938Z,102101.64
2019-03-31T12:30:31.261Z,102108.57
2019-03-31T12:32:59.662Z,102116.61
2019-03-31T12:35:27.884Z,102095.88
2019-03-31T12:37:56.187Z,102101.28
2019-03-31T12:40:43.798Z,102109.08
2019-03-31T12:43:12.083Z,102107.81
2019-03-31T12:45:43.187Z,102095.78
2019-03-31T12:48:10.328Z,102081.27
2019-03-31T12:50:38.597Z,102095.56
2019-03-31T12:53:06.862Z,102082.88
2019-03-31T12:55:35.125Z,102085.05
2019-03-31T12:58:03.412Z,102089.96
2019-03-31T13:00:31.671Z,102095.95
2019-03-31T13:02:59.923Z,102078.92
2019-03-31T13:05:28.196Z,102083.25
2019-03-31T13:07:57.072Z,102085.88
2019-03-31T13:10:26.442Z,102092.95
2019-03-31T13:12:54.704Z,102071.50
2019-03-31T13:15:22.958Z,102091.14
2019-03-31T13:17:51.293Z,102089.52
2019-03-31T13:20:19.624Z,102075.45
2019-03-31T13:22:47.900Z,102081.45
2019-03-31T13:25:16.372Z,102083.19
2019-03-31T13:30:24.148Z,102086.12
2019-03-31T13:32:52.425Z,102082.77
2019-03-31T13:35:20.694Z,102075.08
2019-03-31T13:37:48.953Z,102067.61
2019-03-31T13:40:17.229Z,102085.11
2019-03-31T13:42:45.494Z,102081.95
2019-03-31T13:45:45.281Z,102084.83
2019-03-31T13:48:13.535Z,102095.06
2019-03-31T13:50:41.808Z,102086.13
2019-03-31T13:53:10.075Z,102076.08
2019-03-31T13:55:38.371Z,102072.14
2019-03-31T13:58:08.527Z,102076.74
2019-03-31T14:01:08.274Z,102081.51
2019-03-31T14:03:36.499Z,102074.15
2019-03-31T14:06:04.789Z,102071.54
2019-03-31T14:08:33.049Z,102078.59
2019-03-31T14:11:01.387Z,102099.39
2019-03-31T14:13:29.647Z,102087.72
2019-03-31T14:15:57.922Z,102102.53
2019-03-31T14:18:26.200Z,102098.04
2019-03-31T14:20:54.473Z,102096.78
2019-03-31T14:23:22.755Z,102103.72
2019-03-31T14:25:51.030Z,102094.66
2019-03-31T14:28:19.328Z,102089.83
2019-03-31T14:30:47.597Z,102089.83
2019-03-31T14:33:15.865Z,102098.67
2019-03-31T14:35:44.125Z,102086.41
2019-03-31T14:38:12.391Z,102078.53
2019-03-31T14:40:40.649Z,102075.92
2019-03-31T14:43:08.911Z,102082.89
2019-03-31T14:45:37.271Z,102092.41
2019-03-31T14:48:05.612Z,102096.28
2019-03-31T14:51:05.139Z,102090.73
2019-03-31T14:53:33.401Z,102098.76
2019-03-31T14:56:01.752Z,102099.84
2019-03-31T14:58:30.030Z,102101.86
2019-03-31T15:00:58.273Z,102105.42
2019-03-31T15:03:26.616Z,102089.97
2019-03-31T15:05:54.878Z,102099.52
2019-03-31T15:08:23.134Z,102089.41
2019-03-31T15:10:51.420Z,102086.67
2019-03-31T15:13:19.699Z,102085.15
2019-03-31T15:15:47.967Z,102095.13
2019-03-31T15:18:16.219Z,102087.13
2019-03-31T15:20:44.558Z,102090.66
2019-03-31T15:23:12.827Z,102091.20
2019-03-31T15:25:43.142Z,102095.92
2019-03-31T15:28:11.066Z,102098.33
2019-03-31T15:30:56.579Z,102101.13
2019-03-31T15:33:24.849Z,102091.37
2019-03-31T15:35:53.109Z,102087.42
2019-03-31T15:38:21.376Z,102103.67
2019-03-31T15:40:49.660Z,102094.97
2019-03-31T15:43:17.929Z,102099.84
2019-03-31T15:45:46.207Z,102097.74
2019-03-31T15:48:14.471Z,102099.44
2019-03-31T15:50:42.765Z,102092.51
2019-03-31T15:53:11.035Z,102108.76
2019-03-31T15:55:39.315Z,102121.79
2019-03-31T15:58:07.603Z,102092.67
2019-03-31T16:00:35.866Z,102101.66
2019-03-31T16:03:04.118Z,102104.58
2019-03-31T16:05:32.375Z,102114.13
2019-03-31T16:08:00.655Z,102120.53
2019-03-31T16:10:28.928Z,102111.16
2019-03-31T16:12:57.190Z,102113.27
2019-03-31T16:15:25.457Z,102109.41
2019-03-31T16:17:53.782Z,102102.42
2019-03-31T16:20:22.038Z,102111.60
2019-03-31T16:22:50.301Z,102106.62
2019-03-31T16:25:37.668Z,102104.91
2019-03-31T16:28:05.930Z,102102.45
2019-03-31T16:33:13.146Z,102103.85
2019-03-31T16:35:54.384Z,102103.52
2019-03-31T16:38:25.514Z,102103.64
2019-03-31T16:40:52.654Z,102115.80
2019-03-31T16:43:20.918Z,102117.34
2019-03-31T16:45:49.224Z,102121.20
2019-03-31T16:48:17.505Z,102121.06
2019-03-31T16:50:45.740Z,102125.39
2019-03-31T16:53:14.007Z,102126.25
2019-03-31T16:55:42.298Z,102125.92
2019-03-31T16:58:10.541Z,102121.07
2019-03-31T17:00:38.800Z,102127.09
2019-03-31T17:03:07.055Z,102133.19
2019-03-31T17:05:35.312Z,102142.84
2019-03-31T17:08:03.583Z,102138.07
2019-03-31T17:10:31.835Z,102147.42
2019-03-31T17:13:00.103Z,102142.95
2019-03-31T17:15:28.359Z,102143.31
2019-03-31T17:17:56.635Z,102147.91
2019-03-31T17:20:24.888Z,102146.20
2019-03-31T17:22:53.172Z,102148.97
2019-03-31T17:25:21.414Z,102146.78
2019-03-31T17:27:49.686Z,102153.30
2019-03-31T17:30:18.034Z,102159.23
2019-03-31T17:32:46.300Z,102154.84
2019-03-31T17:35:14.569Z,102146.84
2019-03-31T17:37:42.850Z,102156.32
2019-03-31T17:40:11.183Z,102158.03
2019-03-31T17:42:39.465Z,102164.70
2019-03-31T17:45:07.915Z,102166.48
2019-03-31T17:47:36.172Z,102166.09
2019-03-31T17:50:35.778Z,102169.58
2019-03-31T17:53:04.231Z,102179.29
2019-03-31T17:55:32.615Z,102189.11
2019-03-31T17:58:00.866Z,102186.98
2019-03-31T18:00:29.141Z,102190.38
2019-03-31T18:02:57.406Z,102194.23
2019-03-31T18:05:25.659Z,102191.62
2019-03-31T18:07:53.939Z,102192.13
2019-03-31T18:10:22.205Z,102188.72
2019-03-31T18:12:50.478Z,102198.19
2019-03-31T18:15:18.746Z,102202.98
2019-03-31T18:17:47.007Z,102205.19
2019-03-31T18:20:15.270Z,102209.94
2019-03-31T18:22:43.530Z,102213.81
2019-03-31T18:25:11.861Z,102215.66
2019-03-31T18:27:40.139Z,102217.34
2019-03-31T18:30:39.441Z,102224.55
2019-03-31T18:33:07.707Z,102237.09
2019-03-31T18:35:35.960Z,102247.66
2019-03-31T18:38:04.231Z,102251.78
2019-03-31T18:40:35.325Z,102249.08
2019-03-31T18:43:02.609Z,102250.92
2019-03-31T18:45:30.870Z,102248.51
2019-03-31T18:48:01.070Z,102252.91
2019-03-31T18:50:29.133Z,102258.67
2019-03-31T18:52:57.406Z,102257.48
2019-03-31T18:58:26.977Z,102254.77
2019-03-31T19:01:14.634Z,102262.60
2019-03-31T19:04:02.926Z,102271.32
2019-03-31T19:06:50.571Z,102268.85
2019-03-31T19:09:38.001Z,102274.16
2019-03-31T19:12:25.652Z,102274.20
2019-03-31T19:15:13.067Z,102281.63
2019-03-31T19:18:00.577Z,102276.15
2019-03-31T19:20:48.044Z,102286.11
2019-03-31T19:26:22.949Z,102284.43
2019-03-31T19:29:10.353Z,102298.37
2019-03-31T19:31:57.740Z,102297.11
2019-03-31T19:34:45.111Z,102296.28
2019-03-31T19:37:32.523Z,102295.52
2019-03-31T19:40:19.900Z,102299.86
2019-03-31T19:45:46.242Z,102300.77
2019-03-31T19:48:33.633Z,102302.06
2019-03-31T19:51:21.272Z,102314.66
2019-03-31T19:56:57.604Z,102323.34
2019-03-31T19:59:44.298Z,102318.24
2019-03-31T20:08:02.060Z,102326.19
2019-03-31T20:10:49.485Z,102329.70
2019-03-31T20:13:36.867Z,102334.05
2019-03-31T20:16:24.261Z,102332.33
2019-03-31T20:19:11.736Z,102329.75
2019-03-31T20:21:59.152Z,102332.39
2019-03-31T20:24:46.601Z,102332.39
2019-03-31T20:27:34.020Z,102337.58
2019-03-31T20:30:21.402Z,102337.59
2019-03-31T20:33:08.797Z,102339.77
2019-03-31T20:38:39.630Z,102342.41
2019-03-31T20:46:44.291Z,102342.88
2019-03-31T20:49:12.565Z,102335.12
2019-03-31T20:51:40.819Z,102332.96
2019-03-31T20:54:09.083Z,102336.45
2019-03-31T20:56:37.343Z,102331.27
2019-03-31T20:59:05.602Z,102339.92
2019-03-31T21:01:33.857Z,102342.08
2019-03-31T21:04:02.128Z,102344.66
2019-03-31T21:06:30.407Z,102347.25
2019-03-31T21:08:58.659Z,102345.09
2019-03-31T21:11:26.922Z,102346.38
2019-03-31T21:13:56.955Z,102344.64
2019-03-31T21:16:25.178Z,102351.12
2019-03-31T21:18:53.433Z,102352.41
2019-03-31T21:21:21.947Z,102353.27
2019-03-31T21:24:26.318Z,102353.70
2019-03-31T21:26:54.576Z,102354.58
2019-03-31T21:29:22.840Z,102366.64
2019-03-31T21:31:51.108Z,102361.87
2019-03-31T21:34:19.403Z,102364.89
2019-03-31T21:36:47.664Z,102363.59
2019-03-31T21:39:15.927Z,102360.99
2019-03-31T21:41:44.203Z,102359.30
2019-03-31T21:44:12.491Z,102357.58
2019-03-31T21:46:40.744Z,102367.45
2019-03-31T21:49:09.035Z,102367.05
2019-03-31T21:51:37.305Z,102366.17
2019-03-31T21:54:05.557Z,102371.76
2019-03-31T21:56:33.842Z,102367.44
2019-03-31T21:59:02.159Z,102376.05
2019-03-31T22:02:02.441Z,102376.04
2019-03-31T22:04:30.721Z,102374.76
2019-03-31T22:06:58.998Z,102369.14
2019-03-31T22:09:27.314Z,102367.41
2019-03-31T22:11:55.578Z,102367.83
2019-03-31T22:14:23.870Z,102372.58
2019-03-31T22:16:52.138Z,102370.80
2019-03-31T22:19:20.409Z,102372.95
2019-03-31T22:21:48.668Z,102373.38
2019-03-31T22:24:16.924Z,102376.82
2019-03-31T22:26:45.212Z,102381.12
2019-03-31T22:29:13.551Z,102375.08
2019-03-31T22:31:41.986Z,102377.25
2019-03-31T22:34:10.257Z,102378.12
2019-03-31T22:36:38.532Z,102374.70
2019-03-31T22:39:41.011Z,102376.82
2019-03-31T22:42:09.275Z,102385.00
2019-03-31T22:44:54.263Z,102377.69
2019-03-31T22:47:22.540Z,102382.00
2019-03-31T22:49:50.796Z,102381.55
2019-03-31T22:52:19.055Z,102382.80
2019-03-31T22:54:47.336Z,102383.23
2019-03-31T22:57:15.592Z,102384.92
2019-03-31T22:59:43.951Z,102387.50
2019-03-31T23:02:12.211Z,102393.48
2019-03-31T23:04:40.495Z,102390.47
2019-03-31T23:07:08.768Z,102392.16
2019-03-31T23:09:37.031Z,102396.03
2019-03-31T23:12:05.296Z,102389.58
2019-03-31T23:14:33.564Z,102389.54
2019-03-31T23:17:01.847Z,102380.93
2019-03-31T23:19:30.095Z,102391.64
2019-03-31T23:21:58.372Z,102385.13
2019-03-31T23:24:26.654Z,102387.69
2019-03-31T23:26:54.940Z,102388.50
2019-03-31T23:29:23.193Z,102387.59
2019-03-31T23:31:51.491Z,102390.04
2019-03-31T23:34:19.732Z,102391.34
2019-03-31T23:36:48.021Z,102392.23
2019-03-31T23:39:16.302Z,102390.94
2019-03-31T23:42:03.919Z,102392.61
2019-03-31T23:44:32.183Z,102392.61
2019-03-31T23:47:00.458Z,102388.75
2019-03-31T23:49:28.718Z,102386.55
2019-03-31T23:51:56.974Z,102388.31
2019-03-31T23:54:25.228Z,102383.14
2019-03-31T23:56:53.488Z,102390.00
2019-03-31T23:59:21.765Z,102381.76
